Time;durP1;ratioP1;P1;durP2;ratioP2;P2;SDS_P1;SDS_P2;PMS_P1;PMS_P2;Temp;Humidity;BMP_temperature;BMP_pressure;BME280_temperature;BME280_humidity;BME280_pressure;Samples;Min_cycle;Max_cycle;Signal;HPM_P1;HPM_P2
2021/10/24 00:01:17;;;;;;;9.90;8.18;;;6.70;99.90;;;;;;5074502;28;20029;-75
2021/10/24 00:03:42;;;;;;;12.82;9.95;;;6.60;99.90;;;;;;5074001;28;20037;-75
2021/10/24 00:06:08;;;;;;;13.20;8.93;;;6.60;99.90;;;;;;5074127;28;20037;-75
2021/10/24 00:08:33;;;;;;;10.95;9.30;;;6.60;99.90;;;;;;5075267;28;20020;-75
2021/10/24 00:10:59;;;;;;;10.77;8.60;;;6.60;99.90;;;;;;5073621;28;20382;-75
2021/10/24 00:13:24;;;;;;;10.00;8.30;;;6.60;99.90;;;;;;5073214;28;20156;-75
2021/10/24 00:15:50;;;;;;;12.88;9.13;;;6.60;99.90;;;;;;5073901;28;20028;-74
2021/10/24 00:18:16;;;;;;;9.50;8.18;;;6.50;99.90;;;;;;5073577;28;20025;-75
2021/10/24 00:20:41;;;;;;;10.88;8.10;;;6.50;99.90;;;;;;5073191;28;20462;-75
2021/10/24 00:23:07;;;;;;;9.40;7.95;;;6.50;99.90;;;;;;5073402;28;20377;-75
2021/10/24 00:25:32;;;;;;;8.98;8.07;;;6.40;99.90;;;;;;5074069;28;20109;-76
2021/10/24 00:27:58;;;;;;;9.40;7.63;;;6.50;99.90;;;;;;5076493;28;20434;-75
2021/10/24 00:30:24;;;;;;;10.77;8.68;;;6.40;99.90;;;;;;5095195;28;20073;-75
2021/10/24 00:32:50;;;;;;;11.77;8.77;;;6.40;99.90;;;;;;5076796;28;20020;-75
2021/10/24 00:35:15;;;;;;;14.00;8.25;;;6.40;99.90;;;;;;5076191;28;20480;-76
2021/10/24 00:37:41;;;;;;;8.88;7.72;;;6.40;99.90;;;;;;5076954;28;20012;-75
2021/10/24 00:40:07;;;;;;;10.75;8.18;;;6.40;99.90;;;;;;5076489;28;20042;-75
2021/10/24 00:42:33;;;;;;;9.27;7.50;;;6.40;99.90;;;;;;5076063;28;20547;-75
2021/10/24 00:44:59;;;;;;;9.00;7.85;;;6.40;99.90;;;;;;5094569;28;20130;-75
2021/10/24 00:47:24;;;;;;;9.90;7.68;;;6.40;99.90;;;;;;5076575;28;20016;-75
2021/10/24 00:49:50;;;;;;;9.07;7.47;;;6.30;99.90;;;;;;5076007;28;20384;-75
2021/10/24 00:52:17;;;;;;;10.63;8.25;;;6.30;99.90;;;;;;5076186;28;20028;-75
2021/10/24 00:54:44;;;;;;;11.02;9.15;;;6.30;99.90;;;;;;5076500;28;20111;-73
2021/10/24 00:57:10;;;;;;;9.27;7.60;;;6.20;99.90;;;;;;5093672;28;20078;-72
2021/10/24 00:59:38;;;;;;;11.38;8.32;;;6.20;99.90;;;;;;5076494;28;20020;-72
2021/10/24 01:02:04;;;;;;;9.48;7.75;;;6.20;99.90;;;;;;5076116;28;20043;-72
2021/10/24 01:04:30;;;;;;;11.25;9.02;;;6.20;99.90;;;;;;5093706;28;20059;-73
2021/10/24 01:07:02;;;;;;;10.55;8.52;;;6.20;99.90;;;;;;5094189;28;20023;-73
2021/10/24 01:09:30;;;;;;;13.98;9.13;;;6.20;99.90;;;;;;5075534;28;20016;-74
2021/10/24 01:11:55;;;;;;;11.18;8.80;;;6.20;99.90;;;;;;5076185;28;20426;-72
2021/10/24 01:14:21;;;;;;;9.60;7.95;;;6.20;99.90;;;;;;5094446;28;20024;-75
2021/10/24 01:16:47;;;;;;;10.55;8.07;;;6.20;99.90;;;;;;5093671;28;20028;-75
2021/10/24 01:19:13;;;;;;;12.95;9.20;;;6.20;99.90;;;;;;5075798;28;20104;-74
2021/10/24 01:21:39;;;;;;;12.07;8.55;;;6.10;99.90;;;;;;5094218;28;20024;-74
2021/10/24 01:24:05;;;;;;;9.38;8.02;;;6.10;99.90;;;;;;5074854;28;20422;-75
2021/10/24 01:26:35;;;;;;;10.82;8.75;;;6.10;99.90;;;;;;5094066;28;20035;-75
2021/10/24 01:29:00;;;;;;;9.23;8.18;;;6.10;99.90;;;;;;5093532;28;20032;-72
2021/10/24 01:31:26;;;;;;;9.70;8.23;;;6.10;99.90;;;;;;5093171;28;20396;-72
2021/10/24 01:33:52;;;;;;;10.88;8.68;;;6.10;99.90;;;;;;5079464;28;20142;-73
2021/10/24 01:36:17;;;;;;;10.82;8.35;;;6.10;99.90;;;;;;5082373;28;20028;-74
2021/10/24 01:38:45;;;;;;;12.07;8.50;;;6.00;99.90;;;;;;5087829;28;20031;-72
2021/10/24 01:41:11;;;;;;;11.15;9.25;;;6.00;99.90;;;;;;5065633;28;20031;-72
2021/10/24 01:43:37;;;;;;;10.07;8.82;;;6.00;99.90;;;;;;5091824;28;20030;-74
2021/10/24 01:46:04;;;;;;;11.07;9.15;;;6.00;99.90;;;;;;5074511;28;20037;-74
2021/10/24 01:48:29;;;;;;;13.50;9.95;;;6.00;99.90;;;;;;5071320;28;20021;-75
2021/10/24 01:50:55;;;;;;;12.40;8.55;;;6.10;99.90;;;;;;5056877;28;20020;-74
2021/10/24 01:53:24;;;;;;;10.07;8.30;;;6.10;99.90;;;;;;5061372;28;20056;-74
2021/10/24 01:55:50;;;;;;;9.48;8.25;;;6.10;99.90;;;;;;5069543;28;20024;-74
2021/10/24 01:58:15;;;;;;;9.93;8.57;;;6.10;99.90;;;;;;5072786;28;20054;-73
2021/10/24 02:00:43;;;;;;;12.05;9.55;;;6.10;99.90;;;;;;5054531;28;20024;-73
2021/10/24 02:03:09;;;;;;;9.80;8.55;;;6.10;99.90;;;;;;5072720;28;20024;-73
2021/10/24 02:05:35;;;;;;;9.57;7.63;;;6.10;99.90;;;;;;5072992;28;20028;-73
2021/10/24 02:08:01;;;;;;;9.77;8.25;;;6.10;99.90;;;;;;5053827;28;20021;-73
2021/10/24 02:10:26;;;;;;;13.82;8.25;;;6.00;99.90;;;;;;5073023;28;20028;-72
2021/10/24 02:12:52;;;;;;;9.90;8.18;;;6.00;99.90;;;;;;5054234;28;20377;-73
2021/10/24 02:15:17;;;;;;;9.68;8.48;;;6.00;99.90;;;;;;5072395;28;20020;-74
2021/10/24 02:17:43;;;;;;;11.50;8.63;;;6.00;99.90;;;;;;5072762;28;20050;-74
2021/10/24 02:20:09;;;;;;;10.10;8.57;;;5.90;99.90;;;;;;5071790;28;20059;-73
2021/10/24 02:22:35;;;;;;;13.70;9.73;;;6.00;99.90;;;;;;5054904;28;20027;-73
2021/10/24 02:25:01;;;;;;;12.75;9.15;;;6.00;99.90;;;;;;5072946;28;20388;-73
2021/10/24 02:27:27;;;;;;;10.38;7.72;;;5.90;99.90;;;;;;5072047;28;20020;-73
2021/10/24 02:29:52;;;;;;;11.27;8.80;;;5.90;99.90;;;;;;5072630;28;20458;-74
2021/10/24 02:32:18;;;;;;;10.95;8.10;;;5.90;99.90;;;;;;5072350;28;20059;-74
2021/10/24 02:34:44;;;;;;;11.10;8.60;;;5.90;99.90;;;;;;5071720;28;20124;-76
2021/10/24 02:37:09;;;;;;;12.32;8.48;;;5.90;99.90;;;;;;5054472;28;20111;-76
2021/10/24 02:39:35;;;;;;;9.13;7.78;;;5.90;99.90;;;;;;5070044;28;20020;-74
2021/10/24 02:42:01;;;;;;;10.10;7.18;;;5.90;99.90;;;;;;5072427;28;20048;-77
2021/10/24 02:44:27;;;;;;;9.10;7.70;;;5.90;99.90;;;;;;5054389;28;20099;-72
2021/10/24 02:46:53;;;;;;;8.65;7.72;;;5.90;99.90;;;;;;5053788;28;20116;-73
2021/10/24 02:49:19;;;;;;;8.48;7.60;;;5.80;99.90;;;;;;5053939;28;20378;-73
2021/10/24 02:51:45;;;;;;;10.30;7.82;;;5.80;99.90;;;;;;5072537;28;20032;-74
2021/10/24 02:54:11;;;;;;;9.10;7.75;;;5.80;99.90;;;;;;5071249;28;20037;-74
2021/10/24 02:56:37;;;;;;;10.68;8.10;;;5.80;99.90;;;;;;5072497;28;20074;-72
2021/10/24 02:59:03;;;;;;;11.00;8.32;;;5.80;99.90;;;;;;5054171;28;20455;-72
2021/10/24 03:01:28;;;;;;;8.20;7.38;;;5.80;99.90;;;;;;5071864;28;20491;-74
2021/10/24 03:03:54;;;;;;;8.13;7.32;;;5.80;99.90;;;;;;5054232;28;20059;-74
2021/10/24 03:06:20;;;;;;;9.60;8.00;;;5.80;99.90;;;;;;5072140;28;20021;-73
2021/10/24 03:08:45;;;;;;;8.63;7.72;;;5.70;99.90;;;;;;5053841;28;20461;-73
2021/10/24 03:11:12;;;;;;;9.48;7.93;;;5.70;99.90;;;;;;5054213;28;20024;-73
2021/10/24 03:13:37;;;;;;;11.35;8.10;;;5.70;99.90;;;;;;5072220;28;20031;-73
2021/10/24 03:16:04;;;;;;;9.30;8.38;;;5.70;99.90;;;;;;5053393;28;20032;-73
2021/10/24 03:18:29;;;;;;;13.45;8.93;;;5.70;99.90;;;;;;5071915;28;20021;-72
2021/10/24 03:20:55;;;;;;;8.25;7.32;;;5.70;99.90;;;;;;5054255;28;20362;-74
2021/10/24 03:23:20;;;;;;;12.20;8.00;;;5.70;99.90;;;;;;5071544;28;20086;-74
2021/10/24 03:25:46;;;;;;;11.60;7.80;;;5.70;99.90;;;;;;5054226;28;20032;-74
2021/10/24 03:28:12;;;;;;;10.68;7.75;;;5.80;99.90;;;;;;5071461;28;20044;-74
2021/10/24 03:30:38;;;;;;;9.85;8.07;;;5.80;99.90;;;;;;5053990;28;20021;-73
2021/10/24 03:33:03;;;;;;;10.15;8.32;;;5.80;99.90;;;;;;5071732;28;20021;-73
2021/10/24 03:35:29;;;;;;;10.82;8.02;;;5.80;99.90;;;;;;5071495;28;20032;-73
2021/10/24 03:37:54;;;;;;;10.57;8.52;;;5.80;99.90;;;;;;5071764;28;20029;-73
2021/10/24 03:40:20;;;;;;;8.57;7.20;;;5.80;99.90;;;;;;5053766;28;20031;-73
2021/10/24 03:42:46;;;;;;;13.27;8.70;;;5.90;99.90;;;;;;5071501;28;20028;-72
2021/10/24 03:45:11;;;;;;;12.85;8.35;;;5.90;99.90;;;;;;5071831;28;20380;-73
2021/10/24 03:47:37;;;;;;;9.48;8.30;;;5.90;99.90;;;;;;5071989;28;20029;-72
2021/10/24 03:50:04;;;;;;;16.23;9.60;;;5.90;99.90;;;;;;5071102;28;20031;-72
2021/10/24 03:52:30;;;;;;;17.35;10.90;;;5.90;99.90;;;;;;5054066;28;20062;-72
2021/10/24 03:54:56;;;;;;;11.98;9.35;;;5.90;99.90;;;;;;5070379;28;20115;-72
2021/10/24 03:57:22;;;;;;;10.25;7.55;;;5.90;99.90;;;;;;5053278;28;20499;-73
2021/10/24 03:59:47;;;;;;;12.57;9.27;;;5.90;99.90;;;;;;5072695;28;20029;-72
2021/10/24 04:02:13;;;;;;;12.52;8.85;;;5.90;99.90;;;;;;5075123;28;20082;-72
2021/10/24 04:04:39;;;;;;;8.77;7.88;;;5.90;99.90;;;;;;5056605;28;20021;-72
2021/10/24 04:07:05;;;;;;;16.80;9.30;;;5.90;99.90;;;;;;5057266;28;20023;-72
2021/10/24 04:09:31;;;;;;;12.20;8.52;;;6.00;99.90;;;;;;5057245;28;20025;-72
2021/10/24 04:11:57;;;;;;;9.35;7.55;;;6.00;99.90;;;;;;5056530;28;20423;-72
2021/10/24 04:14:25;;;;;;;9.13;7.05;;;6.00;99.90;;;;;;5057219;28;20025;-74
2021/10/24 04:16:51;;;;;;;10.13;7.88;;;6.00;99.90;;;;;;5057253;28;20025;-75
2021/10/24 04:19:16;;;;;;;8.95;8.05;;;5.90;99.90;;;;;;5056030;28;20044;-74
2021/10/24 04:21:42;;;;;;;9.25;7.95;;;5.90;99.90;;;;;;5074951;28;20484;-74
2021/10/24 04:24:07;;;;;;;8.15;6.97;;;5.90;99.90;;;;;;5074609;28;20050;-75
2021/10/24 04:26:33;;;;;;;7.47;6.70;;;5.80;99.90;;;;;;5056434;28;20035;-75
2021/10/24 04:28:59;;;;;;;9.43;7.30;;;5.80;99.90;;;;;;5074510;28;20040;-75
2021/10/24 04:31:25;;;;;;;7.65;6.30;;;5.80;99.90;;;;;;5074802;28;20077;-75
2021/10/24 04:33:50;;;;;;;9.07;7.22;;;5.80;99.90;;;;;;5056256;28;20028;-74
2021/10/24 04:36:16;;;;;;;9.32;6.95;;;5.70;99.90;;;;;;5056628;28;20028;-74
2021/10/24 04:38:41;;;;;;;10.32;7.43;;;5.70;99.90;;;;;;5074187;28;20024;-74
2021/10/24 04:41:07;;;;;;;10.27;8.13;;;5.70;99.90;;;;;;5074459;28;20415;-75
2021/10/24 04:43:32;;;;;;;10.15;7.25;;;5.70;99.90;;;;;;5056459;28;20066;-75
2021/10/24 04:45:58;;;;;;;9.38;7.13;;;5.60;99.90;;;;;;5073664;28;20037;-74
2021/10/24 04:48:24;;;;;;;10.93;7.55;;;5.60;99.90;;;;;;5074268;28;20071;-74
2021/10/24 04:50:50;;;;;;;9.38;7.03;;;5.60;99.90;;;;;;5056681;28;20017;-74
2021/10/24 04:53:15;;;;;;;10.40;7.78;;;5.60;99.90;;;;;;5073360;28;20024;-74
2021/10/24 04:55:43;;;;;;;8.77;6.93;;;5.60;99.90;;;;;;5074466;28;20036;-74
2021/10/24 04:58:09;;;;;;;8.70;6.90;;;5.60;99.90;;;;;;5074154;28;20017;-74
2021/10/24 05:00:34;;;;;;;10.73;8.00;;;5.50;99.90;;;;;;5073711;28;20101;-73
2021/10/24 05:03:00;;;;;;;9.70;6.90;;;5.50;99.90;;;;;;5073643;28;20031;-74
2021/10/24 05:05:26;;;;;;;8.15;7.03;;;5.50;99.90;;;;;;5074251;28;20032;-74
2021/10/24 05:07:52;;;;;;;11.02;8.00;;;5.40;99.90;;;;;;5073571;28;20025;-74
2021/10/24 05:10:17;;;;;;;9.88;7.32;;;5.40;99.90;;;;;;5073552;28;20032;-74
2021/10/24 05:12:43;;;;;;;7.50;6.50;;;5.40;99.90;;;;;;5056067;28;20116;-73
2021/10/24 05:15:10;;;;;;;9.25;7.05;;;5.40;99.90;;;;;;5073158;28;20029;-74
2021/10/24 05:17:35;;;;;;;9.95;7.20;;;5.40;99.90;;;;;;5074038;28;20100;-74
2021/10/24 05:20:01;;;;;;;10.43;8.15;;;5.40;99.90;;;;;;5073552;28;20494;-74
2021/10/24 05:22:27;;;;;;;8.48;7.57;;;5.30;99.90;;;;;;5073290;28;20023;-74
2021/10/24 05:24:52;;;;;;;13.75;7.95;;;5.30;99.90;;;;;;5055784;28;20465;-74
2021/10/24 05:27:18;;;;;;;9.68;7.05;;;5.20;99.90;;;;;;5055676;28;20028;-73
2021/10/24 05:29:44;;;;;;;11.57;7.10;;;5.20;99.90;;;;;;5072975;28;20056;-74
2021/10/24 05:32:09;;;;;;;9.15;7.15;;;5.20;99.90;;;;;;5073459;28;20032;-73
2021/10/24 05:34:35;;;;;;;10.32;6.88;;;5.20;99.90;;;;;;5073514;28;20021;-73
2021/10/24 05:37:00;;;;;;;10.45;7.70;;;5.20;99.90;;;;;;5072574;28;20112;-73
2021/10/24 05:39:26;;;;;;;10.23;7.65;;;5.20;99.90;;;;;;5055647;28;20469;-72
2021/10/24 05:41:51;;;;;;;17.20;8.50;;;5.20;99.90;;;;;;5073039;28;20380;-73
2021/10/24 05:44:19;;;;;;;8.40;7.38;;;5.10;99.90;;;;;;5072938;28;20027;-72
2021/10/24 05:46:46;;;;;;;8.73;7.30;;;5.10;99.90;;;;;;5055705;28;20067;-73
2021/10/24 05:49:12;;;;;;;11.10;7.78;;;5.10;99.90;;;;;;5072424;28;20082;-74
2021/10/24 05:51:39;;;;;;;9.32;7.07;;;5.10;99.90;;;;;;5073372;28;20038;-73
2021/10/24 05:54:04;;;;;;;8.68;7.65;;;5.00;99.90;;;;;;5072961;28;20020;-72
2021/10/24 05:56:30;;;;;;;10.48;7.75;;;5.00;99.90;;;;;;5072334;28;20034;-73
2021/10/24 05:58:55;;;;;;;9.60;7.53;;;5.00;99.90;;;;;;5073018;28;20025;-73
2021/10/24 06:01:21;;;;;;;10.93;7.45;;;5.00;99.90;;;;;;5055271;28;20027;-74
2021/10/24 06:03:46;;;;;;;8.65;7.10;;;5.00;99.90;;;;;;5072386;28;20115;-74
2021/10/24 06:06:12;;;;;;;10.15;7.38;;;5.00;99.90;;;;;;5054704;28;20033;-73
2021/10/24 06:08:37;;;;;;;9.23;7.60;;;5.00;99.90;;;;;;5073207;28;20530;-74
2021/10/24 06:11:26;;;;;;;8.10;7.28;;;5.00;99.90;;;;;;5072196;28;20035;-73
2021/10/24 06:13:52;;;;;;;8.88;6.95;;;4.90;99.90;;;;;;5072894;28;20016;-73
2021/10/24 06:16:18;;;;;;;10.73;7.45;;;4.90;99.90;;;;;;5072718;28;20050;-72
2021/10/24 06:18:43;;;;;;;9.90;7.97;;;4.90;99.90;;;;;;5071918;28;20040;-72
2021/10/24 06:21:09;;;;;;;10.05;8.07;;;4.90;99.90;;;;;;5072658;28;20122;-72
2021/10/24 06:23:35;;;;;;;9.02;6.80;;;4.90;99.90;;;;;;5071992;28;20407;-72
2021/10/24 06:26:01;;;;;;;10.52;8.23;;;4.90;99.90;;;;;;5053895;28;20041;-72
2021/10/24 06:28:27;;;;;;;12.00;7.35;;;4.90;99.90;;;;;;5072636;28;20102;-72
2021/10/24 06:30:53;;;;;;;9.68;7.13;;;4.90;99.90;;;;;;5073378;28;20044;-73
2021/10/24 06:33:19;;;;;;;9.80;7.38;;;4.90;99.90;;;;;;5071621;28;20020;-73
2021/10/24 06:35:45;;;;;;;9.10;7.65;;;4.90;99.90;;;;;;5054806;28;20536;-74
2021/10/24 06:38:11;;;;;;;8.85;7.32;;;4.90;99.90;;;;;;5071565;28;20096;-73
2021/10/24 06:40:37;;;;;;;7.88;6.80;;;4.90;99.90;;;;;;5072717;28;20028;-73
2021/10/24 06:43:03;;;;;;;8.18;7.05;;;4.90;99.90;;;;;;5072329;28;20021;-73
2021/10/24 06:45:29;;;;;;;12.52;8.43;;;4.90;99.90;;;;;;5071840;28;20040;-73
2021/10/24 06:47:54;;;;;;;10.32;8.00;;;4.90;99.90;;;;;;5075206;28;20108;-73
2021/10/24 06:50:21;;;;;;;19.15;8.40;;;4.90;99.90;;;;;;5073381;28;20032;-75
2021/10/24 06:52:46;;;;;;;8.88;7.95;;;4.90;99.90;;;;;;5056827;28;20027;-78
2021/10/24 06:55:12;;;;;;;10.70;7.35;;;4.90;99.90;;;;;;5082339;28;20028;-75
2021/10/24 06:57:52;;;;;;;9.73;7.97;;;4.90;99.90;;;;;;5078669;28;20070;-78
2021/10/24 07:00:20;;;;;;;11.60;8.40;;;4.90;99.90;;;;;;5075254;28;20036;-75
2021/10/24 07:02:45;;;;;;;11.07;8.93;;;4.90;99.90;;;;;;5079273;28;20560;-72
2021/10/24 07:05:11;;;;;;;13.35;9.68;;;5.00;99.90;;;;;;5075923;28;20115;-73
2021/10/24 07:07:37;;;;;;;10.10;7.93;;;5.00;99.90;;;;;;5091201;28;20050;-76
2021/10/24 07:10:04;;;;;;;13.80;9.95;;;5.00;99.90;;;;;;5080744;28;20047;-77
2021/10/24 07:12:30;;;;;;;10.05;8.30;;;5.10;99.90;;;;;;5087462;28;20008;-75
2021/10/24 07:14:55;;;;;;;10.23;8.88;;;5.10;99.90;;;;;;5072125;28;20047;-72
2021/10/24 07:17:21;;;;;;;11.55;8.77;;;5.10;99.90;;;;;;5069335;28;20025;-77
2021/10/24 07:19:46;;;;;;;12.85;9.27;;;5.20;99.90;;;;;;5064695;28;20023;-75
2021/10/24 07:22:12;;;;;;;12.85;9.15;;;5.20;99.90;;;;;;5063584;28;20023;-74
2021/10/24 07:24:37;;;;;;;10.77;8.63;;;5.20;99.90;;;;;;5083094;28;20028;-75
2021/10/24 07:27:03;;;;;;;11.18;8.75;;;5.30;99.90;;;;;;5068744;28;20036;-76
2021/10/24 07:29:29;;;;;;;12.55;9.75;;;5.30;99.90;;;;;;5079955;28;20048;-75
2021/10/24 07:31:54;;;;;;;14.20;10.15;;;5.30;99.90;;;;;;5064412;28;20042;-75
2021/10/24 07:34:20;;;;;;;10.68;9.00;;;5.30;99.90;;;;;;5093032;28;20024;-76
2021/10/24 07:36:46;;;;;;;11.70;9.43;;;5.40;99.90;;;;;;5077268;28;20012;-76
2021/10/24 07:39:12;;;;;;;10.52;8.55;;;5.40;99.90;;;;;;5095559;28;20031;-75
2021/10/24 07:41:38;;;;;;;16.27;9.13;;;5.40;99.90;;;;;;5095200;28;20027;-74
2021/10/24 07:44:06;;;;;;;10.82;9.65;;;5.40;99.90;;;;;;5077219;28;20418;-76
2021/10/24 07:46:31;;;;;;;12.13;8.25;;;5.50;99.90;;;;;;5095432;28;20102;-74
2021/10/24 07:48:57;;;;;;;12.13;8.70;;;5.50;99.90;;;;;;5084701;28;20160;-72
2021/10/24 07:51:22;;;;;;;10.85;9.05;;;5.50;99.90;;;;;;5073658;28;20033;-71
2021/10/24 07:53:48;;;;;;;10.85;8.60;;;5.50;99.90;;;;;;5056695;28;20028;-73
2021/10/24 07:56:13;;;;;;;11.15;9.35;;;5.50;99.90;;;;;;5056367;28;20024;-77
2021/10/24 07:58:40;;;;;;;10.88;8.73;;;5.60;99.90;;;;;;5080515;28;20024;-79
2021/10/24 08:01:07;;;;;;;11.23;8.38;;;5.60;99.90;;;;;;5073864;28;20028;-74
2021/10/24 08:03:32;;;;;;;11.55;8.63;;;5.70;99.90;;;;;;5074620;28;20020;-73
2021/10/24 08:05:58;;;;;;;10.38;8.32;;;5.70;99.90;;;;;;5076943;28;20043;-72
2021/10/24 08:08:23;;;;;;;11.80;8.63;;;5.70;99.90;;;;;;5077339;28;20065;-73
2021/10/24 08:10:49;;;;;;;10.68;7.97;;;5.70;99.90;;;;;;5076824;28;20126;-72
2021/10/24 08:13:16;;;;;;;11.63;8.98;;;5.80;99.90;;;;;;5085984;28;20035;-73
2021/10/24 08:15:41;;;;;;;9.68;8.65;;;5.80;99.90;;;;;;5075206;28;20039;-76
2021/10/24 08:18:08;;;;;;;11.50;9.32;;;5.80;99.90;;;;;;5089923;28;20028;-78
2021/10/24 08:20:34;;;;;;;12.85;10.45;;;5.80;99.90;;;;;;5087911;28;20105;-77
2021/10/24 08:23:01;;;;;;;12.90;10.45;;;5.80;99.90;;;;;;5073997;28;20024;-78
2021/10/24 08:25:28;;;;;;;14.50;10.50;;;5.90;99.90;;;;;;5081218;28;20434;-75
2021/10/24 08:27:54;;;;;;;12.90;9.90;;;5.90;99.90;;;;;;5072104;28;20055;-78
2021/10/24 08:30:20;;;;;;;12.25;9.90;;;6.00;99.90;;;;;;5083298;28;20020;-81
2021/10/24 08:32:46;;;;;;;12.25;9.75;;;6.00;99.90;;;;;;5070557;28;20031;-75
2021/10/24 08:35:12;;;;;;;15.15;11.07;;;6.00;99.90;;;;;;5093397;28;20042;-78
2021/10/24 08:37:37;;;;;;;16.95;11.35;;;6.00;99.90;;;;;;5094661;28;20028;-76
2021/10/24 08:40:08;;;;;;;12.32;9.55;;;6.10;99.90;;;;;;5093977;28;20073;-76
2021/10/24 08:42:38;;;;;;;11.82;9.65;;;6.10;99.90;;;;;;5094841;28;20024;-75
2021/10/24 08:45:05;;;;;;;12.32;10.73;;;6.20;99.90;;;;;;5075186;28;20392;-77
2021/10/24 08:47:30;;;;;;;14.38;10.18;;;6.20;99.90;;;;;;5076623;28;20056;-74
2021/10/24 08:49:56;;;;;;;9.77;8.63;;;6.20;99.90;;;;;;5076361;28;20074;-73
2021/10/24 08:52:23;;;;;;;12.55;9.77;;;6.30;99.90;;;;;;5093774;28;20024;-73
2021/10/24 08:54:50;;;;;;;9.93;8.20;;;6.30;99.90;;;;;;5094645;28;20430;-73
2021/10/24 08:57:23;;;;;;;12.52;8.40;;;6.30;99.90;;;;;;5094455;28;20065;-73
2021/10/24 08:59:49;;;;;;;13.10;9.73;;;6.40;99.90;;;;;;5094003;28;20059;-73
2021/10/24 09:02:15;;;;;;;9.98;8.93;;;6.40;99.90;;;;;;5094435;28;20032;-73
2021/10/24 09:04:57;;;;;;;10.25;9.18;;;6.50;99.90;;;;;;5094338;28;20034;-73
2021/10/24 09:07:35;;;;;;;15.15;10.27;;;6.50;99.90;;;;;;5075694;28;20068;-73
2021/10/24 09:10:01;;;;;;;12.85;8.43;;;6.50;99.90;;;;;;5076067;28;20039;-73
2021/10/24 09:12:26;;;;;;;11.48;8.65;;;6.60;99.90;;;;;;5076224;28;20460;-73
2021/10/24 09:14:56;;;;;;;10.88;9.20;;;6.60;99.90;;;;;;5093656;28;20024;-74
2021/10/24 09:17:27;;;;;;;12.32;8.95;;;6.60;99.90;;;;;;5094387;28;20088;-73
2021/10/24 09:19:56;;;;;;;10.45;8.75;;;6.60;99.90;;;;;;5093624;28;20066;-74
2021/10/24 09:22:26;;;;;;;10.65;9.05;;;6.70;99.90;;;;;;5094255;28;20020;-77
2021/10/24 09:25:14;;;;;;;13.63;10.25;;;6.70;99.90;;;;;;5076112;28;20077;-76
2021/10/24 09:27:46;;;;;;;12.65;9.93;;;6.70;99.90;;;;;;5093295;28;20024;-77
2021/10/24 09:30:24;;;;;;;11.48;9.45;;;6.80;99.90;;;;;;5093727;28;20039;-77
2021/10/24 09:32:53;;;;;;;13.90;10.18;;;6.80;99.90;;;;;;5075816;28;20028;-76
2021/10/24 09:35:31;;;;;;;11.93;9.85;;;6.90;99.90;;;;;;5093077;28;20472;-76
2021/10/24 09:37:59;;;;;;;13.02;9.90;;;6.90;99.90;;;;;;5093656;28;20480;-76
2021/10/24 09:40:46;;;;;;;14.25;9.75;;;6.90;99.90;;;;;;5075556;28;20016;-78
2021/10/24 09:43:17;;;;;;;11.02;8.85;;;7.00;99.90;;;;;;5074750;28;20070;-76
2021/10/24 09:45:45;;;;;;;12.88;9.60;;;7.10;99.90;;;;;;5093645;28;20032;-77
2021/10/24 09:48:13;;;;;;;11.00;8.98;;;7.00;99.90;;;;;;5074594;28;20044;-77
2021/10/24 09:50:50;;;;;;;10.15;8.52;;;7.10;99.90;;;;;;5075533;28;20028;-77
2021/10/24 09:53:23;;;;;;;11.65;9.07;;;7.10;99.90;;;;;;5093269;28;20058;-77
2021/10/24 09:55:57;;;;;;;12.63;9.75;;;7.10;99.90;;;;;;5092956;28;20023;-76
2021/10/24 09:58:28;;;;;;;13.98;9.18;;;7.20;99.90;;;;;;5093643;28;20031;-76
2021/10/24 10:00:54;;;;;;;11.88;8.75;;;7.20;99.90;;;;;;5093530;28;20024;-77
2021/10/24 10:03:21;;;;;;;9.77;8.13;;;7.30;99.90;;;;;;5092420;28;20016;-77
2021/10/24 10:05:47;;;;;;;10.35;8.00;;;7.30;99.90;;;;;;5075111;28;20039;-76
2021/10/24 10:08:17;;;;;;;10.75;8.52;;;7.30;99.90;;;;;;5093199;28;20024;-76
2021/10/24 10:11:16;;;;;;;10.50;8.43;;;7.30;99.90;;;;;;5074474;28;20016;-76
2021/10/24 10:13:45;;;;;;;10.73;9.00;;;7.40;99.90;;;;;;5093002;28;20480;-75
2021/10/24 10:16:14;;;;;;;16.92;10.52;;;7.40;99.90;;;;;;5074210;28;20099;-77
2021/10/24 10:18:58;;;;;;;12.30;9.20;;;7.50;99.90;;;;;;5074796;28;20063;-76
2021/10/24 10:21:29;;;;;;;12.90;8.80;;;7.50;99.90;;;;;;5093034;28;20024;-75
2021/10/24 10:23:55;;;;;;;10.95;8.30;;;7.50;99.90;;;;;;5092490;28;20103;-76
2021/10/24 10:26:40;;;;;;;10.50;9.32;;;7.50;99.90;;;;;;5074855;28;20123;-76
2021/10/24 10:29:10;;;;;;;11.85;9.10;;;7.60;99.90;;;;;;5092691;28;20475;-77
2021/10/24 10:31:38;;;;;;;11.07;8.35;;;7.60;99.90;;;;;;5074289;28;20032;-77
2021/10/24 10:34:06;;;;;;;10.40;9.30;;;7.60;99.90;;;;;;5074477;28;20020;-77
2021/10/24 10:36:44;;;;;;;9.30;8.30;;;7.70;99.90;;;;;;5093139;28;20020;-77
2021/10/24 10:39:31;;;;;;;11.30;9.45;;;7.70;99.90;;;;;;5092034;28;20030;-77
2021/10/24 10:41:58;;;;;;;12.65;8.80;;;7.80;99.90;;;;;;5092881;28;20490;-76
2021/10/24 10:44:24;;;;;;;9.00;7.55;;;7.80;99.90;;;;;;5091900;28;20024;-77
2021/10/24 10:46:50;;;;;;;12.75;9.05;;;7.80;99.90;;;;;;5092903;28;20556;-78
2021/10/24 10:49:21;;;;;;;10.30;8.90;;;7.90;99.90;;;;;;5092329;28;20048;-77
2021/10/24 10:51:48;;;;;;;11.30;8.52;;;7.90;99.90;;;;;;5073967;28;20501;-77
2021/10/24 10:54:14;;;;;;;17.60;10.27;;;7.90;99.90;;;;;;5092388;28;20024;-75
2021/10/24 10:56:53;;;;;;;10.57;8.73;;;8.00;99.90;;;;;;5074797;28;20112;-76
2021/10/24 10:59:30;;;;;;;11.95;8.43;;;8.00;99.90;;;;;;5091817;28;20021;-77
2021/10/24 11:02:23;;;;;;;14.07;9.25;;;8.00;99.90;;;;;;5074183;28;20028;-77
2021/10/24 11:04:51;;;;;;;10.68;8.55;;;8.10;99.90;;;;;;5092617;28;20070;-77
2021/10/24 11:07:36;;;;;;;9.07;8.05;;;8.10;99.90;;;;;;5091808;28;20020;-77
2021/10/24 11:10:04;;;;;;;11.80;8.52;;;8.20;99.90;;;;;;5095533;28;20494;-76
2021/10/24 11:12:32;;;;;;;10.65;8.60;;;8.20;99.90;;;;;;5096006;28;20055;-76
2021/10/24 11:15:07;;;;;;;8.75;7.50;;;8.20;99.90;;;;;;5096486;28;20095;-76
2021/10/24 11:17:37;;;;;;;10.43;8.63;;;8.20;99.90;;;;;;5096786;28;20032;-78
2021/10/24 11:20:19;;;;;;;13.35;8.38;;;8.30;99.90;;;;;;5096018;28;20023;-77
2021/10/24 11:22:55;;;;;;;13.35;8.73;;;8.30;99.90;;;;;;5096322;28;20101;-77
2021/10/24 11:25:30;;;;;;;11.10;9.25;;;8.30;99.90;;;;;;5096431;28;20557;-77
2021/10/24 11:27:57;;;;;;;12.98;9.40;;;8.30;99.90;;;;;;5076965;28;20361;-77
2021/10/24 11:30:24;;;;;;;12.20;8.45;;;8.40;99.90;;;;;;5078241;28;20464;-78
2021/10/24 11:32:54;;;;;;;9.73;8.15;;;8.40;99.90;;;;;;5096161;28;20016;-78
2021/10/24 11:35:22;;;;;;;10.63;8.43;;;8.40;99.90;;;;;;5095369;28;20028;-77
2021/10/24 11:37:54;;;;;;;9.55;8.40;;;8.50;99.90;;;;;;5096187;28;20488;-78
2021/10/24 11:40:31;;;;;;;9.85;8.15;;;8.50;99.90;;;;;;5095967;28;20027;-77
2021/10/24 11:43:00;;;;;;;11.50;9.60;;;8.50;99.90;;;;;;5095137;28;20093;-75
2021/10/24 11:45:27;;;;;;;10.13;8.68;;;8.60;99.90;;;;;;5096026;28;20064;-76
2021/10/24 11:47:57;;;;;;;11.85;8.48;;;8.60;99.90;;;;;;5095420;28;20779;-75
2021/10/24 11:50:46;;;;;;;11.05;8.23;;;8.60;99.90;;;;;;5077683;28;20051;-77
2021/10/24 11:53:33;;;;;;;10.93;8.20;;;8.70;99.90;;;;;;5095596;28;20487;-76
2021/10/24 11:56:15;;;;;;;9.57;7.75;;;8.70;99.90;;;;;;5094863;28;20024;-76
2021/10/24 12:01:22;;;;;;;7.45;6.65;;;8.80;99.90;;;;;;5095580;28;20024;-78
2021/10/24 12:03:58;;;;;;;10.52;8.13;;;8.80;99.90;;;;;;5095085;28;20020;-74
2021/10/24 12:06:50;;;;;;;12.45;8.27;;;8.80;99.90;;;;;;5095676;28;20555;-76
2021/10/24 12:09:36;;;;;;;11.07;8.35;;;8.90;99.90;;;;;;5090439;28;20543;-74
2021/10/24 12:12:10;;;;;;;9.23;7.45;;;8.90;99.90;;;;;;5057316;28;20032;-73
2021/10/24 12:14:54;;;;;;;9.13;7.20;;;8.90;99.90;;;;;;5075106;28;20491;-74
2021/10/24 12:17:28;;;;;;;10.57;7.75;;;8.90;99.90;;;;;;5065138;28;20031;-74
2021/10/24 12:20:19;;;;;;;9.93;7.00;;;9.00;99.90;;;;;;5075622;28;20481;-75
2021/10/24 12:22:52;;;;;;;10.05;7.90;;;9.00;99.90;;;;;;5076071;28;20032;-77
2021/10/24 12:25:38;;;;;;;10.32;7.72;;;9.00;99.90;;;;;;5077125;28;20039;-76
2021/10/24 12:28:21;;;;;;;9.68;8.07;;;9.00;99.90;;;;;;5072383;28;20484;-75
2021/10/24 12:30:51;;;;;;;11.05;7.60;;;9.10;99.90;;;;;;5074616;28;20040;-76
2021/10/24 12:33:37;;;;;;;9.98;8.35;;;9.10;99.90;;;;;;5058675;28;20025;-74
2021/10/24 12:36:08;;;;;;;9.63;7.05;;;9.10;99.90;;;;;;5060630;28;20020;-77
2021/10/24 12:38:57;;;;;;;7.97;7.18;;;9.20;99.90;;;;;;5074295;28;20103;-76
2021/10/24 12:41:45;;;;;;;9.32;7.63;;;9.20;99.90;;;;;;5056851;28;20024;-73
2021/10/24 12:44:18;;;;;;;9.00;7.78;;;9.30;99.90;;;;;;5070479;28;20079;-75
2021/10/24 12:46:44;;;;;;;13.50;7.40;;;9.30;99.90;;;;;;5084100;28;20032;-76
2021/10/24 12:49:22;;;;;;;9.40;7.15;;;9.40;99.90;;;;;;5094463;28;20020;-78
2021/10/24 12:51:51;;;;;;;9.68;7.93;;;9.40;99.90;;;;;;5076538;28;20380;-81
2021/10/24 12:54:29;;;;;;;9.15;7.28;;;9.40;99.90;;;;;;5065411;28;20061;-75
2021/10/24 12:56:54;;;;;;;7.88;7.07;;;9.40;99.90;;;;;;5092103;28;20061;-73
2021/10/24 12:59:20;;;;;;;7.95;7.15;;;9.40;99.90;;;;;;5089705;28;20063;-76